Time;durP1;ratioP1;P1;durP2;ratioP2;P2;SDS_P1;SDS_P2;PMS_P1;PMS_P2;Temp;Humidity;BMP_temperature;BMP_pressure;BME280_temperature;BME280_humidity;BME280_pressure;Samples;Min_cycle;Max_cycle;Signal;HPM_P1;HPM_P2
2023/09/27 00:02:41;;;;;;;;;;;;;;;21.63;51.58;96185.19;10535669;28;2020;-74
2023/09/27 00:07:41;;;;;;;;;;;;;;;21.63;51.50;96181.75;10526957;28;1981;-75
2023/09/27 00:12:42;;;;;;;;;;;;;;;21.63;51.50;96187.03;10523364;28;2049;-75
2023/09/27 00:17:42;;;;;;;;;;;;;;;21.63;51.33;96173.84;10520531;28;2003;-75
2023/09/27 00:22:43;;;;;;;;;;;;;;;21.63;51.54;96171.19;10515847;28;2179;-74
2023/09/27 00:27:44;;;;;;;;;;;;;;;21.62;51.73;96172.25;10524906;28;2265;-75
2023/09/27 00:32:45;;;;;;;;;;;;;;;21.61;51.56;96168.84;10530639;28;1903;-75
2023/09/27 00:37:51;;;;;;;;;;;;;;;21.60;51.53;96169.88;10523836;28;1901;-75
2023/09/27 00:42:51;;;;;;;;;;;;;;;21.61;51.67;96166.22;10530119;28;4666;-75
2023/09/27 00:47:51;;;;;;;;;;;;;;;21.60;51.55;96163.81;10532595;28;1909;-75
2023/09/27 00:52:52;;;;;;;;;;;;;;;21.59;51.20;96156.97;10503836;28;1918;-74
2023/09/27 00:57:53;;;;;;;;;;;;;;;21.59;51.45;96156.97;10529687;28;2012;-75
2023/09/27 01:02:54;;;;;;;;;;;;;;;21.58;51.20;96158.03;10520255;28;2128;-75
2023/09/27 01:07:54;;;;;;;;;;;;;;;21.58;51.21;96150.09;10524595;28;2031;-75
2023/09/27 01:12:54;;;;;;;;;;;;;;;21.57;51.13;96149.34;10535885;28;1979;-74
2023/09/27 01:17:55;;;;;;;;;;;;;;;21.57;51.11;96144.06;10526190;28;1895;-73
2023/09/27 01:22:58;;;;;;;;;;;;;;;21.57;51.03;96143.28;10523335;28;1905;-75
2023/09/27 01:28:21;;;;;;;;;;;;;;;21.56;51.41;96150.38;10528213;28;2830;-75
2023/09/27 01:33:21;;;;;;;;;;;;;;;21.56;51.28;96145.09;10515197;28;2158;-74
2023/09/27 01:38:21;;;;;;;;;;;;;;;21.56;51.34;96139.03;10542367;28;1953;-75
2023/09/27 01:43:21;;;;;;;;;;;;;;;21.55;51.19;96135.63;10525935;28;4611;-75
2023/09/27 01:48:22;;;;;;;;;;;;;;;21.56;51.28;96131.13;10537916;28;1975;-75
2023/09/27 01:53:22;;;;;;;;;;;;;;;21.55;51.34;96124.28;10537997;28;2058;-75
2023/09/27 01:58:22;;;;;;;;;;;;;;;21.55;51.16;96121.66;10566562;27;1923;-75
2023/09/27 02:03:22;;;;;;;;;;;;;;;21.53;51.38;96115.84;10534328;28;1966;-75
2023/09/27 02:08:23;;;;;;;;;;;;;;;21.54;51.26;96117.41;10534291;28;1957;-74
2023/09/27 02:13:23;;;;;;;;;;;;;;;21.54;51.10;96117.41;10527748;28;1964;-75
2023/09/27 02:18:23;;;;;;;;;;;;;;;21.54;51.16;96114.78;10553898;27;1945;-75
2023/09/27 02:23:23;;;;;;;;;;;;;;;21.53;50.96;96115.84;10528505;28;2068;-75
2023/09/27 02:28:24;;;;;;;;;;;;;;;21.53;50.94;96121.13;10544987;27;3040;-74
2023/09/27 02:33:25;;;;;;;;;;;;;;;21.52;50.90;96122.16;10529120;28;2241;-74
2023/09/27 02:38:26;;;;;;;;;;;;;;;21.52;51.16;96127.44;10537341;28;1868;-75
2023/09/27 02:43:28;;;;;;;;;;;;;;;21.52;50.97;96130.09;10534924;28;4551;-74
2023/09/27 02:48:29;;;;;;;;;;;;;;;21.50;51.03;96122.44;10530536;28;2079;-75
2023/09/27 02:53:29;;;;;;;;;;;;;;;21.51;50.82;96125.88;10534584;28;2084;-75
2023/09/27 02:58:29;;;;;;;;;;;;;;;21.50;50.85;96119.03;10534262;28;2142;-75
2023/09/27 03:03:30;;;;;;;;;;;;;;;21.50;50.91;96121.66;10511802;28;1945;-74
2023/09/27 03:08:31;;;;;;;;;;;;;;;21.49;50.87;96115.63;10535458;28;1910;-74
2023/09/27 03:13:31;;;;;;;;;;;;;;;21.49;50.76;96126.16;10533102;28;2881;-75
2023/09/27 03:18:31;;;;;;;;;;;;;;;21.49;50.92;96134.06;10537829;28;1881;-74
2023/09/27 03:23:32;;;;;;;;;;;;;;;21.48;50.89;96134.31;10533048;28;1963;-74
2023/09/27 03:28:32;;;;;;;;;;;;;;;21.49;50.95;96146.47;10549223;28;2308;-74
2023/09/27 03:33:32;;;;;;;;;;;;;;;21.47;50.92;96144.09;10532562;28;1934;-74
2023/09/27 03:38:32;;;;;;;;;;;;;;;21.47;50.79;96149.38;10516155;28;2054;-74
2023/09/27 03:43:33;;;;;;;;;;;;;;;21.48;50.93;96163.34;10530169;28;2189;-75
2023/09/27 03:48:33;;;;;;;;;;;;;;;21.47;50.54;96161.78;10530376;28;2077;-74
2023/09/27 03:53:33;;;;;;;;;;;;;;;21.47;50.70;96164.41;10555389;27;1973;-75
2023/09/27 03:58:33;;;;;;;;;;;;;;;21.46;50.77;96163.63;10529087;28;2914;-74
2023/09/27 04:03:34;;;;;;;;;;;;;;;21.46;50.81;96168.09;10527586;28;1945;-74
2023/09/27 04:08:34;;;;;;;;;;;;;;;21.47;50.81;96167.03;10533604;28;1983;-74
2023/09/27 04:13:34;;;;;;;;;;;;;;;21.45;50.69;96162.03;10530796;28;1986;-74
2023/09/27 04:18:35;;;;;;;;;;;;;;;21.45;50.77;96164.66;10519007;28;2091;-74
2023/09/27 04:23:36;;;;;;;;;;;;;;;21.45;50.62;96169.16;10530428;28;1961;-75
2023/09/27 04:28:36;;;;;;;;;;;;;;;21.45;50.46;96188.41;10534221;28;1961;-74
2023/09/27 04:33:38;;;;;;;;;;;;;;;21.44;50.80;96192.09;10523762;28;2209;-75
2023/09/27 04:38:39;;;;;;;;;;;;;;;21.44;50.81;96194.75;10529627;28;1953;-75
2023/09/27 04:43:39;;;;;;;;;;;;;;;21.45;50.58;96198.19;10534338;28;2926;-74
2023/09/27 04:48:39;;;;;;;;;;;;;;;21.44;50.73;96188.66;10528249;28;1957;-74
2023/09/27 04:53:39;;;;;;;;;;;;;;;21.43;50.64;96181.84;10538168;28;1919;-74
2023/09/27 04:58:41;;;;;;;;;;;;;;;21.43;50.75;96195.03;10552423;27;2015;-74
2023/09/27 05:03:41;;;;;;;;;;;;;;;21.42;50.72;96194.22;10519742;28;1959;-75
2023/09/27 05:08:41;;;;;;;;;;;;;;;21.40;50.38;96198.97;10521848;28;2039;-74
2023/09/27 05:13:41;;;;;;;;;;;;;;;21.41;50.50;96208.44;10527130;28;1893;-73
2023/09/27 05:18:42;;;;;;;;;;;;;;;21.41;50.64;96205.81;10532174;28;1891;-73
2023/09/27 05:23:42;;;;;;;;;;;;;;;21.41;50.57;96208.44;10528787;28;1905;-74
2023/09/27 05:28:42;;;;;;;;;;;;;;;21.41;50.32;96207.69;10567770;27;2001;-74
2023/09/27 05:33:42;;;;;;;;;;;;;;;21.39;50.67;96204.53;10528921;28;1929;-74
2023/09/27 05:38:44;;;;;;;;;;;;;;;21.40;50.68;96211.38;10528750;28;2021;-73
2023/09/27 05:43:44;;;;;;;;;;;;;;;21.40;50.32;96221.91;10525169;28;4607;-74
2023/09/27 05:48:44;;;;;;;;;;;;;;;21.40;50.61;96216.63;10526663;28;2004;-74
2023/09/27 05:53:47;;;;;;;;;;;;;;;21.40;50.53;96219.28;10538618;28;2199;-75
2023/09/27 05:58:47;;;;;;;;;;;;;;;21.39;50.60;96215.84;10524928;28;1998;-75
2023/09/27 06:03:47;;;;;;;;;;;;;;;21.40;50.67;96222.72;10524544;28;1969;-73
2023/09/27 06:08:47;;;;;;;;;;;;;;;21.39;50.50;96226.38;10527003;28;2012;-75
2023/09/27 06:13:48;;;;;;;;;;;;;;;21.40;50.74;96225.34;10530277;28;1988;-77
2023/09/27 06:18:48;;;;;;;;;;;;;;;21.40;50.40;96229.81;10519676;28;1933;-72
2023/09/27 06:23:48;;;;;;;;;;;;;;;21.44;50.81;96233.50;10523342;28;1914;-72
2023/09/27 06:28:48;;;;;;;;;;;;;;;21.44;50.92;96233.50;10526664;28;2528;-75
2023/09/27 06:33:49;;;;;;;;;;;;;;;21.45;51.00;96237.75;10524015;28;1836;-75
2023/09/27 06:38:50;;;;;;;;;;;;;;;21.46;51.15;96236.66;10522973;28;1876;-75
2023/09/27 06:43:50;;;;;;;;;;;;;;;21.47;51.12;96235.63;10539904;28;4586;-77
2023/09/27 06:48:51;;;;;;;;;;;;;;;21.48;51.08;96237.97;10527851;28;1949;-76
2023/09/27 06:53:52;;;;;;;;;;;;;;;21.50;51.06;96243.78;10536427;28;1796;-75
2023/09/27 06:58:52;;;;;;;;;;;;;;;21.50;51.17;96238.50;10527775;28;2135;-76
2023/09/27 07:03:52;;;;;;;;;;;;;;;21.51;51.31;96257.78;10524164;28;1866;-75
2023/09/27 07:08:57;;;;;;;;;;;;;;;21.52;51.15;96259.34;10521806;28;1897;-73
2023/09/27 07:13:59;;;;;;;;;;;;;;;21.53;51.20;96260.94;10533454;28;2553;-73
2023/09/27 07:18:59;;;;;;;;;;;;;;;21.54;51.01;96265.13;10533948;28;1827;-76
2023/09/27 07:23:59;;;;;;;;;;;;;;;21.53;51.28;96259.09;10537162;28;1792;-74
2023/09/27 07:29:00;;;;;;;;;;;;;;;21.52;51.34;96269.88;10522180;28;1985;-74
2023/09/27 07:34:00;;;;;;;;;;;;;;;21.53;51.28;96268.84;10524129;28;1856;-74
2023/09/27 07:39:03;;;;;;;;;;;;;;;21.53;51.28;96263.56;10528320;27;1820;-75
2023/09/27 07:44:09;;;;;;;;;;;;;;;21.53;51.25;96264.38;10530565;28;4526;-74
2023/09/27 07:49:10;;;;;;;;;;;;;;;21.53;51.22;96261.72;10512972;28;1973;-74
2023/09/27 07:54:12;;;;;;;;;;;;;;;21.54;51.28;96254.59;10537488;28;1908;-74
2023/09/27 07:59:12;;;;;;;;;;;;;;;21.56;51.45;96263.00;10560312;27;2770;-75
2023/09/27 08:04:15;;;;;;;;;;;;;;;21.56;51.34;96270.94;10535986;28;1840;-74
2023/09/27 08:09:15;;;;;;;;;;;;;;;21.57;51.40;96281.25;10511124;28;1909;-74
2023/09/27 08:14:18;;;;;;;;;;;;;;;21.56;51.35;96282.28;10523271;28;1873;-74
2023/09/27 08:19:18;;;;;;;;;;;;;;;21.55;51.23;96280.72;10531115;28;2081;-75
2023/09/27 08:24:19;;;;;;;;;;;;;;;21.58;51.59;96276.72;10532559;28;1824;-74
2023/09/27 08:29:20;;;;;;;;;;;;;;;21.59;51.32;96273.06;10528236;28;1977;-74
2023/09/27 08:34:20;;;;;;;;;;;;;;;21.60;51.61;96271.97;10529734;28;1797;-74
2023/09/27 08:39:21;;;;;;;;;;;;;;;21.61;51.63;96276.22;10524404;28;1835;-73
2023/09/27 08:44:22;;;;;;;;;;;;;;;21.60;51.57;96274.63;10533399;28;4595;-74
2023/09/27 08:49:23;;;;;;;;;;;;;;;21.60;51.37;96264.06;10525603;28;1905;-75
2023/09/27 08:54:23;;;;;;;;;;;;;;;21.61;51.51;96260.38;10537490;27;1870;-74
2023/09/27 08:59:24;;;;;;;;;;;;;;;21.61;51.48;96255.09;10544060;27;3182;-75
2023/09/27 09:04:24;;;;;;;;;;;;;;;21.61;51.90;96255.09;10507388;28;1824;-75
2023/09/27 09:09:26;;;;;;;;;;;;;;;21.63;51.89;96239.78;10532156;28;1910;-69
2023/09/27 09:14:36;;;;;;;;;;;;;;;21.66;52.06;96236.59;10515807;28;1882;-72
2023/09/27 09:19:38;;;;;;;;;;;;;;;21.69;51.69;96241.38;10547948;27;1878;-72
2023/09/27 09:24:42;;;;;;;;;;;;;;;21.71;52.03;96236.59;10508630;28;1969;-75
2023/09/27 09:29:46;;;;;;;;;;;;;;;21.72;51.78;96240.84;10518074;28;1846;-74
2023/09/27 09:34:47;;;;;;;;;;;;;;;21.76;52.13;96241.88;10524287;28;1895;-73
2023/09/27 09:39:48;;;;;;;;;;;;;;;21.77;52.14;96227.63;10505223;28;1907;-73
2023/09/27 09:44:50;;;;;;;;;;;;;;;21.79;52.06;96231.56;10532058;28;4568;-71
2023/09/27 09:49:51;;;;;;;;;;;;;;;21.81;52.08;96221.56;10524402;28;1880;-72
2023/09/27 09:54:51;;;;;;;;;;;;;;;21.84;51.88;96220.25;10512689;28;1928;-73
2023/09/27 10:00:49;;;;;;;;;;;;;;;21.86;52.04;96215.47;10513207;28;1887;-72
2023/09/27 10:05:36;;;;;;;;;;;;;;;21.88;52.26;96217.84;10503911;28;1975;-72
2023/09/27 10:10:37;;;;;;;;;;;;;;;21.88;52.27;96217.84;10534182;28;1840;-69
2023/09/27 10:15:37;;;;;;;;;;;;;;;21.86;52.44;96210.97;10512606;28;2004;-71
2023/09/27 10:20:37;;;;;;;;;;;;;;;21.89;52.46;96214.94;10522691;28;1862;-71
2023/09/27 10:25:38;;;;;;;;;;;;;;;21.89;52.55;96204.38;10539835;27;1887;-69
2023/09/27 10:30:41;;;;;;;;;;;;;;;21.91;52.91;96201.47;10522096;28;3135;-72
2023/09/27 10:35:45;;;;;;;;;;;;;;;21.92;52.96;96190.66;10508284;28;1847;-71
2023/09/27 10:40:45;;;;;;;;;;;;;;;21.93;52.87;96184.28;10523209;28;4542;-71
2023/09/27 10:45:55;;;;;;;;;;;;;;;21.94;52.87;96177.16;10518472;28;1979;-71
2023/09/27 10:50:56;;;;;;;;;;;;;;;21.94;52.94;96167.41;10529416;28;1891;-71
2023/09/27 10:55:56;;;;;;;;;;;;;;;21.96;52.88;96170.56;10521029;28;1929;-71
2023/09/27 11:01:00;;;;;;;;;;;;;;;21.95;52.83;96161.06;10538738;28;1834;-71
2023/09/27 11:06:08;;;;;;;;;;;;;;;21.97;53.04;96152.88;10527654;28;1976;-71
2023/09/27 11:11:08;;;;;;;;;;;;;;;21.97;52.65;96143.09;10521239;28;1830;-71
2023/09/27 11:16:09;;;;;;;;;;;;;;;21.99;52.88;96132.28;10510721;28;2943;-70
2023/09/27 11:21:09;;;;;;;;;;;;;;;22.00;53.05;96129.34;10521787;28;1878;-71
2023/09/27 11:26:10;;;;;;;;;;;;;;;22.01;53.12;96135.44;10524980;28;1906;-70
2023/09/27 11:31:10;;;;;;;;;;;;;;;21.99;52.98;96119.84;10518992;28;1976;-70
2023/09/27 11:36:10;;;;;;;;;;;;;;;21.98;53.39;96113.00;10518984;28;1937;-70
2023/09/27 11:41:14;;;;;;;;;;;;;;;21.98;52.80;96104.28;10523391;28;1899;-71
2023/09/27 11:46:24;;;;;;;;;;;;;;;21.97;53.01;96100.09;10521911;28;2082;-71
2023/09/27 11:51:25;;;;;;;;;;;;;;;21.98;53.46;96086.59;10532322;28;1863;-73
2023/09/27 11:56:25;;;;;;;;;;;;;;;21.98;53.22;96073.41;10535309;28;1812;-72
2023/09/27 12:01:25;;;;;;;;;;;;;;;21.98;53.17;96076.06;10522229;28;1862;-71
2023/09/27 12:06:28;;;;;;;;;;;;;;;22.00;53.71;96057.28;10518276;28;1906;-69
2023/09/27 12:11:28;;;;;;;;;;;;;;;22.02;53.58;96052.53;10524057;28;1911;-70
2023/09/27 12:16:28;;;;;;;;;;;;;;;22.09;52.85;96048.50;10524284;28;2019;-71
2023/09/27 12:21:33;;;;;;;;;;;;;;;22.07;53.08;96034.03;10516560;28;1852;-69
2023/09/27 12:26:33;;;;;;;;;;;;;;;22.05;52.98;96023.72;10520944;28;1906;-70
2023/09/27 12:31:33;;;;;;;;;;;;;;;22.03;53.11;96017.16;10555237;27;2371;-71
2023/09/27 12:36:34;;;;;;;;;;;;;;;22.03;52.99;96006.59;10520400;28;1970;-71
2023/09/27 12:41:34;;;;;;;;;;;;;;;22.02;53.24;95987.34;10501343;28;4546;-71
2023/09/27 12:46:34;;;;;;;;;;;;;;;22.02;53.29;95987.34;10518511;28;1966;-70
2023/09/27 12:51:35;;;;;;;;;;;;;;;22.03;53.31;95980.22;10531069;28;1847;-71
2023/09/27 12:56:35;;;;;;;;;;;;;;;22.04;53.34;95974.63;10528910;28;1878;-70
2023/09/27 13:01:37;;;;;;;;;;;;;;;22.04;53.18;95964.09;10515422;28;1911;-69
2023/09/27 13:06:38;;;;;;;;;;;;;;;22.02;53.45;95960.94;10511649;28;1905;-70
2023/09/27 13:11:39;;;;;;;;;;;;;;;22.06;53.54;95951.38;10523282;28;1857;-72
2023/09/27 13:16:39;;;;;;;;;;;;;;;22.04;53.51;95940.31;10520925;28;1873;-70
2023/09/27 13:21:39;;;;;;;;;;;;;;;22.06;53.38;95935.56;10520590;28;1885;-70
2023/09/27 13:26:40;;;;;;;;;;;;;;;22.09;53.50;95940.25;10523622;28;1914;-70
2023/09/27 13:31:40;;;;;;;;;;;;;;;22.09;53.33;95927.06;10489405;28;2440;-69
2023/09/27 13:36:40;;;;;;;;;;;;;;;22.09;53.29;95929.69;10519712;28;1801;-71
2023/09/27 13:41:41;;;;;;;;;;;;;;;22.08;52.93;95917.59;10520810;28;4578;-70
2023/09/27 13:46:41;;;;;;;;;;;;;;;22.09;52.67;95915.75;10519303;28;1981;-70
2023/09/27 13:51:42;;;;;;;;;;;;;;;22.09;52.98;95913.88;10535788;28;1828;-70
2023/09/27 13:56:42;;;;;;;;;;;;;;;22.11;52.80;95903.03;10523536;28;1870;-72
2023/09/27 14:01:42;;;;;;;;;;;;;;;22.12;52.67;95894.03;10528913;28;1843;-76
2023/09/27 14:06:42;;;;;;;;;;;;;;;22.12;52.71;95883.47;10523189;28;1906;-71
2023/09/27 14:11:43;;;;;;;;;;;;;;;22.13;52.49;95885.88;10516589;28;2051;-72
2023/09/27 14:16:43;;;;;;;;;;;;;;;22.16;52.20;95874.72;10524396;28;2431;-71
2023/09/27 14:21:44;;;;;;;;;;;;;;;22.15;52.39;95873.16;10514462;28;2098;-72
2023/09/27 14:26:46;;;;;;;;;;;;;;;22.16;52.28;95866.81;10517752;28;1952;-72
2023/09/27 14:31:46;;;;;;;;;;;;;;;22.16;52.42;95856.25;10520961;28;1954;-71
2023/09/27 14:36:47;;;;;;;;;;;;;;;22.16;52.51;95853.59;10536806;27;1832;-71
2023/09/27 14:41:47;;;;;;;;;;;;;;;22.16;52.44;95845.69;10517287;28;4611;-73
2023/09/27 14:46:47;;;;;;;;;;;;;;;22.16;52.42;95835.13;10528258;28;1968;-72
2023/09/27 14:51:49;;;;;;;;;;;;;;;22.14;52.45;95824.06;10507517;28;2061;-71
2023/09/27 14:56:49;;;;;;;;;;;;;;;22.14;52.26;95820.63;10517311;28;1840;-71
2023/09/27 15:01:52;;;;;;;;;;;;;;;22.12;52.34;95818.28;10524375;28;1966;-71
2023/09/27 15:06:53;;;;;;;;;;;;;;;22.10;52.50;95812.50;10516439;28;3030;-71
2023/09/27 15:11:53;;;;;;;;;;;;;;;22.10;52.47;95822.25;10521589;28;1951;-71
2023/09/27 15:16:53;;;;;;;;;;;;;;;22.11;52.70;95822.00;10520006;28;1848;-72
2023/09/27 15:21:54;;;;;;;;;;;;;;;22.11;52.53;95819.34;10519806;28;1946;-71
2023/09/27 15:26:54;;;;;;;;;;;;;;;22.11;52.46;95810.66;10533019;27;1967;-71
2023/09/27 15:31:55;;;;;;;;;;;;;;;22.08;52.62;95809.34;10509053;28;1900;-70
2023/09/27 15:36:55;;;;;;;;;;;;;;;22.09;52.51;95804.84;10516108;28;1851;-70
2023/09/27 15:41:55;;;;;;;;;;;;;;;22.07;52.54;95799.06;10518978;28;4574;-70
2023/09/27 15:46:55;;;;;;;;;;;;;;;22.08;52.15;95814.63;10509315;28;1922;-70
2023/09/27 15:51:56;;;;;;;;;;;;;;;22.07;52.59;95805.13;10522576;28;2416;-72
2023/09/27 15:56:56;;;;;;;;;;;;;;;22.06;52.71;95808.84;10503002;28;1895;-70
2023/09/27 16:01:56;;;;;;;;;;;;;;;22.09;52.63;95802.22;10521436;28;1945;-70
2023/09/27 16:06:57;;;;;;;;;;;;;;;22.09;52.85;95802.22;10514265;28;1971;-70
2023/09/27 16:11:57;;;;;;;;;;;;;;;22.07;52.88;95804.34;10529217;28;1851;-69
2023/09/27 16:16:58;;;;;;;;;;;;;;;22.07;52.70;95805.13;10520190;28;1807;-69
2023/09/27 16:21:58;;;;;;;;;;;;;;;22.06;52.80;95797.50;10521977;28;1886;-71
2023/09/27 16:27:00;;;;;;;;;;;;;;;22.06;52.79;95794.84;10517609;28;1984;-71
2023/09/27 16:32:00;;;;;;;;;;;;;;;22.05;52.80;95799.34;10509526;28;1934;-71
2023/09/27 16:37:00;;;;;;;;;;;;;;;22.05;53.05;95796.69;10515489;28;2457;-71
2023/09/27 16:42:01;;;;;;;;;;;;;;;22.04;52.91;95800.41;10526711;28;4566;-71
2023/09/27 16:47:01;;;;;;;;;;;;;;;22.05;53.16;95809.91;10551367;27;2016;-72
2023/09/27 16:52:02;;;;;;;;;;;;;;;22.06;53.42;95798.28;10520951;28;1943;-70
2023/09/27 16:57:02;;;;;;;;;;;;;;;22.04;53.54;95797.00;10522057;28;1878;-71
2023/09/27 17:02:03;;;;;;;;;;;;;;;22.05;53.64;95801.97;10524070;28;1864;-75
2023/09/27 17:07:03;;;;;;;;;;;;;;;22.03;53.78;95798.84;10524662;28;1979;-72
2023/09/27 17:12:04;;;;;;;;;;;;;;;22.03;53.86;95814.66;10515902;28;1870;-72
2023/09/27 17:17:05;;;;;;;;;;;;;;;22.06;53.98;95818.59;10514838;28;2067;-72
2023/09/27 17:22:05;;;;;;;;;;;;;;;22.05;53.99;95830.25;10511469;28;2356;-73
2023/09/27 17:27:05;;;;;;;;;;;;;;;22.04;54.08;95832.09;10522902;28;1938;-72
2023/09/27 17:32:05;;;;;;;;;;;;;;;22.03;53.97;95833.16;10536138;28;1781;-72
2023/09/27 17:37:07;;;;;;;;;;;;;;;22.02;53.79;95839.50;10520023;28;1895;-72
2023/09/27 17:42:07;;;;;;;;;;;;;;;22.01;53.87;95845.84;10524980;28;4609;-72
2023/09/27 17:47:07;;;;;;;;;;;;;;;22.01;53.96;95853.75;10529780;28;1967;-72
2023/09/27 17:52:08;;;;;;;;;;;;;;;22.01;54.13;95848.47;10514195;28;2048;-71
2023/09/27 17:57:08;;;;;;;;;;;;;;;21.99;53.83;95860.41;10522967;28;2115;-70
2023/09/27 18:02:11;;;;;;;;;;;;;;;21.98;53.96;95859.63;10529869;28;1788;-70
2023/09/27 18:07:12;;;;;;;;;;;;;;;21.97;54.17;95865.19;10527065;28;2540;-71
2023/09/27 18:12:15;;;;;;;;;;;;;;;21.96;54.18;95861.75;10527725;28;1958;-71
2023/09/27 18:17:15;;;;;;;;;;;;;;;21.96;54.12;95863.59;10529501;28;1874;-72
2023/09/27 18:22:15;;;;;;;;;;;;;;;21.97;53.95;95867.81;10520860;28;1851;-71
2023/09/27 18:27:16;;;;;;;;;;;;;;;21.92;53.92;95855.44;10521468;28;1910;-71
2023/09/27 18:32:16;;;;;;;;;;;;;;;21.93;54.26;95862.28;10521788;28;1796;-71
2023/09/27 18:37:16;;;;;;;;;;;;;;;21.92;54.30;95860.72;10522981;28;1901;-70
2023/09/27 18:42:18;;;;;;;;;;;;;;;21.92;54.08;95855.44;10533822;28;4678;-70
2023/09/27 18:47:18;;;;;;;;;;;;;;;21.95;54.28;95862.78;10565274;27;1983;-71
2023/09/27 18:52:19;;;;;;;;;;;;;;;21.93;54.21;95853.59;10537814;28;2666;-71
2023/09/27 18:57:20;;;;;;;;;;;;;;;21.93;54.17;95850.97;10529642;28;1962;-70
2023/09/27 19:02:22;;;;;;;;;;;;;;;21.93;54.25;95846.44;10537542;28;1745;-71
2023/09/27 19:07:22;;;;;;;;;;;;;;;21.94;54.17;95850.69;10534820;28;1921;-68
2023/09/27 19:12:22;;;;;;;;;;;;;;;21.95;54.19;95852.25;10537380;28;1816;-70
2023/09/27 19:17:23;;;;;;;;;;;;;;;21.95;54.48;95849.59;10524762;28;1889;-69
2023/09/27 19:22:23;;;;;;;;;;;;;;;21.96;54.64;95858.31;10531816;28;1883;-74
2023/09/27 19:27:23;;;;;;;;;;;;;;;21.95;54.44;95859.41;10554760;27;1976;-72
2023/09/27 19:32:24;;;;;;;;;;;;;;;21.95;54.27;95865.44;10529857;28;1910;-74
2023/09/27 19:37:24;;;;;;;;;;;;;;;21.95;54.40;95870.72;10529950;28;2626;-75
2023/09/27 19:42:24;;;;;;;;;;;;;;;21.95;54.39;95870.72;10517549;28;4574;-72
2023/09/27 19:47:25;;;;;;;;;;;;;;;21.94;54.33;95877.06;10519060;28;1906;-74
2023/09/27 19:52:25;;;;;;;;;;;;;;;21.93;54.13;95872.09;10521660;28;1999;-74
2023/09/27 19:57:25;;;;;;;;;;;;;;;21.93;54.21;95869.44;10560225;27;1897;-75
2023/09/27 20:02:26;;;;;;;;;;;;;;;21.92;53.83;95879.22;10533961;28;1900;-78
2023/09/27 20:07:26;;;;;;;;;;;;;;;21.90;54.07;95878.69;10528607;28;1979;-77
2023/09/27 20:12:26;;;;;;;;;;;;;;;21.90;53.88;95872.63;10536524;28;1779;-74
2023/09/27 20:17:26;;;;;;;;;;;;;;;21.89;54.13;95882.38;10531412;28;1960;-74
2023/09/27 20:22:27;;;;;;;;;;;;;;;21.88;53.76;95886.09;10532609;28;1839;-73
2023/09/27 20:27:28;;;;;;;;;;;;;;;21.88;53.74;95896.66;10533390;28;1975;-74
2023/09/27 20:32:29;;;;;;;;;;;;;;;21.86;53.92;95896.91;10528190;28;1835;-76
2023/09/27 20:37:29;;;;;;;;;;;;;;;21.87;54.03;95900.34;10523280;28;2784;-70
2023/09/27 20:42:29;;;;;;;;;;;;;;;21.88;54.10;95901.16;10509620;28;4612;-71
2023/09/27 20:47:29;;;;;;;;;;;;;;;21.88;54.40;95902.72;10518734;28;1959;-71
2023/09/27 20:52:30;;;;;;;;;;;;;;;21.89;54.51;95903.50;10523043;28;1839;-70
2023/09/27 20:57:31;;;;;;;;;;;;;;;21.90;54.58;95905.09;10529096;28;1888;-70
2023/09/27 21:02:31;;;;;;;;;;;;;;;21.91;54.60;95908.53;10525986;28;1883;-71
2023/09/27 21:07:32;;;;;;;;;;;;;;;21.89;54.60;95906.13;10527849;28;1963;-71
2023/09/27 21:12:32;;;;;;;;;;;;;;;21.90;54.42;95909.56;10525388;28;1895;-71
2023/09/27 21:17:33;;;;;;;;;;;;;;;21.91;54.39;95901.38;10524541;28;1892;-70
2023/09/27 21:22:33;;;;;;;;;;;;;;;21.91;54.55;95895.31;10518553;28;2780;-71
2023/09/27 21:27:33;;;;;;;;;;;;;;;21.90;54.49;95889.25;10535544;28;1902;-71
2023/09/27 21:32:34;;;;;;;;;;;;;;;21.90;54.30;95891.91;10533228;28;2001;-71
2023/09/27 21:37:34;;;;;;;;;;;;;;;21.91;54.42;95884.78;10531976;28;1818;-71
2023/09/27 21:42:34;;;;;;;;;;;;;;;21.90;54.54;95885.81;10514089;28;4707;-71
2023/09/27 21:47:34;;;;;;;;;;;;;;;21.89;54.50;95874.47;10522825;28;1971;-71
2023/09/27 21:52:35;;;;;;;;;;;;;;;21.90;54.37;95877.91;10530176;28;1886;-71
2023/09/27 21:57:37;;;;;;;;;;;;;;;21.90;54.43;95877.91;10541144;28;1901;-71
2023/09/27 22:02:37;;;;;;;;;;;;;;;21.88;54.22;95863.13;10524309;28;2055;-71
2023/09/27 22:07:38;;;;;;;;;;;;;;;21.88;54.03;95867.63;10530650;28;2676;-71
2023/09/27 22:12:38;;;;;;;;;;;;;;;21.88;54.08;95860.47;10534838;28;1784;-70
2023/09/27 22:17:39;;;;;;;;;;;;;;;21.88;53.94;95859.72;10542319;28;1883;-70
2023/09/27 22:22:43;;;;;;;;;;;;;;;21.88;54.30;95866.84;10532429;28;1863;-72
2023/09/27 22:27:43;;;;;;;;;;;;;;;21.88;54.24;95861.56;10539947;28;1973;-71
2023/09/27 22:32:44;;;;;;;;;;;;;;;21.86;54.07;95861.84;10538623;28;1898;-71
2023/09/27 22:37:45;;;;;;;;;;;;;;;21.85;53.97;95855.78;10534334;28;1863;-70
2023/09/27 22:42:46;;;;;;;;;;;;;;;21.85;54.08;95860.25;10532893;28;4626;-71
2023/09/27 22:47:46;;;;;;;;;;;;;;;21.85;53.91;95865.53;10541575;28;1968;-72
2023/09/27 22:52:48;;;;;;;;;;;;;;;21.85;54.18;95854.97;10525673;28;2650;-70
2023/09/27 22:57:49;;;;;;;;;;;;;;;21.84;54.05;95859.47;10539488;28;1847;-70
2023/09/27 23:02:54;;;;;;;;;;;;;;;21.83;53.81;95852.63;10542891;28;1927;-71
2023/09/27 23:07:57;;;;;;;;;;;;;;;21.84;53.89;95856.81;10542067;28;2020;-70
2023/09/27 23:13:04;;;;;;;;;;;;;;;21.84;53.82;95863.97;10538955;28;1852;-70
2023/09/27 23:18:11;;;;;;;;;;;;;;;21.82;53.72;95861.59;10535803;28;1990;-71
2023/09/27 23:23:16;;;;;;;;;;;;;;;21.82;53.94;95872.16;10530784;28;2007;-71
2023/09/27 23:28:16;;;;;;;;;;;;;;;21.83;53.69;95862.38;10549671;27;1973;-71
2023/09/27 23:33:16;;;;;;;;;;;;;;;21.81;53.90;95860.03;10534952;28;1862;-71
2023/09/27 23:39:16;;;;;;;;;;;;;;;21.81;53.85;95859.22;10516574;28;2802;-70
2023/09/27 23:43:40;;;;;;;;;;;;;;;21.82;53.75;95876.66;10518761;28;4551;-70
2023/09/27 23:48:41;;;;;;;;;;;;;;;21.81;53.56;95880.31;10525332;28;1922;-70
2023/09/27 23:53:41;;;;;;;;;;;;;;;21.80;53.77;95879.53;10526325;28;1858;-70
2023/09/27 23:58:43;;;;;;;;;;;;;;;21.80;53.78;95879.53;10523491;28;1741;-71
